sensor_id;sensor_type;location;lat;lon;timestamp;pressure;altitude;pressure_sealevel;temperature;humidity
27210;BME280;14721;42.668;23.386;2023-02-28T00:00:29;95754.84;;;6.50;100.00
27210;BME280;14721;42.668;23.386;2023-02-28T00:02:55;95755.53;;;6.53;100.00
27210;BME280;14721;42.668;23.386;2023-02-28T00:05:22;95753.34;;;6.61;100.00
27210;BME280;14721;42.668;23.386;2023-02-28T00:07:49;95755.44;;;6.72;100.00
27210;BME280;14721;42.668;23.386;2023-02-28T00:10:19;95751.28;;;6.83;100.00
27210;BME280;14721;42.668;23.386;2023-02-28T00:12:47;95744.97;;;6.86;100.00
27210;BME280;14721;42.668;23.386;2023-02-28T00:15:13;95768.56;;;6.75;100.00
27210;BME280;14721;42.668;23.386;2023-02-28T00:17:38;95762.13;;;6.79;100.00
27210;BME280;14721;42.668;23.386;2023-02-28T00:20:05;95770.75;;;6.84;100.00
27210;BME280;14721;42.668;23.386;2023-02-28T00:22:33;95756.91;;;6.77;100.00
27210;BME280;14721;42.668;23.386;2023-02-28T00:24:59;95765.56;;;6.98;100.00
27210;BME280;14721;42.668;23.386;2023-02-28T00:27:25;95771.31;;;7.06;100.00
27210;BME280;14721;42.668;23.386;2023-02-28T00:29:50;95780.84;;;7.10;100.00
27210;BME280;14721;42.668;23.386;2023-02-28T00:32:16;95766.28;;;7.17;100.00
27210;BME280;14721;42.668;23.386;2023-02-28T00:34:42;95768.03;;;7.33;100.00
27210;BME280;14721;42.668;23.386;2023-02-28T00:37:09;95768.72;;;7.37;100.00
27210;BME280;14721;42.668;23.386;2023-02-28T00:39:38;95768.91;;;7.34;100.00
27210;BME280;14721;42.668;23.386;2023-02-28T00:42:05;95783.44;;;7.27;100.00
27210;BME280;14721;42.668;23.386;2023-02-28T00:44:31;95775.22;;;7.16;100.00
27210;BME280;14721;42.668;23.386;2023-02-28T00:46:57;95756.56;;;7.00;100.00
27210;BME280;14721;42.668;23.386;2023-02-28T00:49:23;95750.34;;;6.84;100.00
27210;BME280;14721;42.668;23.386;2023-02-28T00:51:49;95750.22;;;6.70;100.00
27210;BME280;14721;42.668;23.386;2023-02-28T00:54:15;95755.69;;;6.67;100.00
27210;BME280;14721;42.668;23.386;2023-02-28T00:56:41;95745.78;;;6.54;100.00
27210;BME280;14721;42.668;23.386;2023-02-28T00:59:06;95743.06;;;6.55;100.00
27210;BME280;14721;42.668;23.386;2023-02-28T01:01:32;95772.72;;;6.46;100.00
27210;BME280;14721;42.668;23.386;2023-02-28T01:03:57;95780.38;;;6.52;100.00
27210;BME280;14721;42.668;23.386;2023-02-28T01:06:23;95773.91;;;6.41;100.00
27210;BME280;14721;42.668;23.386;2023-02-28T01:08:48;95767.41;;;6.46;100.00
27210;BME280;14721;42.668;23.386;2023-02-28T01:11:15;95771.94;;;6.44;100.00
27210;BME280;14721;42.668;23.386;2023-02-28T01:13:43;95766.72;;;6.26;100.00
27210;BME280;14721;42.668;23.386;2023-02-28T01:16:09;95772.34;;;6.20;100.00
27210;BME280;14721;42.668;23.386;2023-02-28T01:18:35;95760.94;;;6.18;100.00
27210;BME280;14721;42.668;23.386;2023-02-28T01:21:06;95766.56;;;6.29;100.00
27210;BME280;14721;42.668;23.386;2023-02-28T01:23:32;95766.19;;;6.36;100.00
27210;BME280;14721;42.668;23.386;2023-02-28T01:26:04;95752.91;;;6.36;100.00
27210;BME280;14721;42.668;23.386;2023-02-28T01:28:30;95751.34;;;6.49;100.00
27210;BME280;14721;42.668;23.386;2023-02-28T01:30:55;95747.81;;;6.49;100.00
27210;BME280;14721;42.668;23.386;2023-02-28T01:33:21;95758.09;;;6.55;100.00
27210;BME280;14721;42.668;23.386;2023-02-28T01:35:46;95752.13;;;6.51;100.00
27210;BME280;14721;42.668;23.386;2023-02-28T01:38:12;95743.44;;;6.48;100.00
27210;BME280;14721;42.668;23.386;2023-02-28T01:40:37;95751.56;;;6.45;100.00
27210;BME280;14721;42.668;23.386;2023-02-28T01:43:07;95761.72;;;6.37;100.00
27210;BME280;14721;42.668;23.386;2023-02-28T01:45:42;95770.06;;;6.29;100.00
27210;BME280;14721;42.668;23.386;2023-02-28T01:48:08;95765.13;;;6.22;100.00
27210;BME280;14721;42.668;23.386;2023-02-28T01:50:40;95757.81;;;6.27;100.00
27210;BME280;14721;42.668;23.386;2023-02-28T01:53:11;95761.88;;;6.34;100.00
27210;BME280;14721;42.668;23.386;2023-02-28T01:55:39;95770.22;;;6.43;100.00
27210;BME280;14721;42.668;23.386;2023-02-28T01:58:06;95763.13;;;6.44;100.00
27210;BME280;14721;42.668;23.386;2023-02-28T02:00:34;95770.38;;;6.40;100.00
27210;BME280;14721;42.668;23.386;2023-02-28T02:03:07;95755.81;;;6.32;100.00
27210;BME280;14721;42.668;23.386;2023-02-28T02:05:38;95755.97;;;6.29;100.00
27210;BME280;14721;42.668;23.386;2023-02-28T02:08:07;95766.00;;;6.22;100.00
27210;BME280;14721;42.668;23.386;2023-02-28T02:10:52;95763.50;;;6.19;100.00
27210;BME280;14721;42.668;23.386;2023-02-28T02:39:06;95764.16;;;6.24;100.00
27210;BME280;14721;42.668;23.386;2023-02-28T02:41:52;95763.59;;;6.18;100.00
27210;BME280;14721;42.668;23.386;2023-02-28T02:44:25;95774.81;;;6.06;100.00
27210;BME280;14721;42.668;23.386;2023-02-28T02:47:11;95787.13;;;6.07;100.00
27210;BME280;14721;42.668;23.386;2023-02-28T02:49:39;95781.91;;;6.05;100.00
27210;BME280;14721;42.668;23.386;2023-02-28T02:52:11;95775.56;;;5.91;100.00
27210;BME280;14721;42.668;23.386;2023-02-28T02:54:42;95777.13;;;5.95;100.00
27210;BME280;14721;42.668;23.386;2023-02-28T02:57:14;95776.59;;;5.88;100.00
27210;BME280;14721;42.668;23.386;2023-02-28T02:59:41;95782.34;;;5.96;100.00
27210;BME280;14721;42.668;23.386;2023-02-28T03:02:11;95787.63;;;6.15;100.00
27210;BME280;14721;42.668;23.386;2023-02-28T03:04:49;95794.88;;;6.28;100.00
27210;BME280;14721;42.668;23.386;2023-02-28T03:07:16;95801.53;;;6.37;100.00
27210;BME280;14721;42.668;23.386;2023-02-28T03:09:51;95807.22;;;6.46;100.00
27210;BME280;14721;42.668;23.386;2023-02-28T03:12:17;95800.81;;;6.50;100.00
27210;BME280;14721;42.668;23.386;2023-02-28T03:20:27;95821.59;;;6.42;100.00
27210;BME280;14721;42.668;23.386;2023-02-28T03:23:03;95820.84;;;6.22;100.00
27210;BME280;14721;42.668;23.386;2023-02-28T03:28:31;95813.94;;;6.01;100.00
27210;BME280;14721;42.668;23.386;2023-02-28T03:31:07;95833.44;;;6.18;100.00
27210;BME280;14721;42.668;23.386;2023-02-28T03:33:42;95821.44;;;6.28;100.00
27210;BME280;14721;42.668;23.386;2023-02-28T03:36:14;95829.66;;;6.41;100.00
27210;BME280;14721;42.668;23.386;2023-02-28T03:38:52;95825.41;;;6.37;100.00
27210;BME280;14721;42.668;23.386;2023-02-28T03:41:22;95823.63;;;6.37;100.00
27210;BME280;14721;42.668;23.386;2023-02-28T03:44:11;95826.84;;;6.44;100.00
27210;BME280;14721;42.668;23.386;2023-02-28T03:46:45;95831.28;;;6.43;100.00
27210;BME280;14721;42.668;23.386;2023-02-28T03:49:17;95841.91;;;6.43;100.00
27210;BME280;14721;42.668;23.386;2023-02-28T03:51:46;95836.44;;;6.46;100.00
27210;BME280;14721;42.668;23.386;2023-02-28T03:54:16;95828.47;;;6.46;100.00
27210;BME280;14721;42.668;23.386;2023-02-28T03:56:57;95841.13;;;6.58;100.00
27210;BME280;14721;42.668;23.386;2023-02-28T03:59:32;95837.38;;;6.45;100.00
27210;BME280;14721;42.668;23.386;2023-02-28T04:01:59;95845.81;;;6.36;100.00
27210;BME280;14721;42.668;23.386;2023-02-28T04:04:25;95845.66;;;6.39;100.00
27210;BME280;14721;42.668;23.386;2023-02-28T04:06:52;95845.38;;;6.27;100.00
27210;BME280;14721;42.668;23.386;2023-02-28T04:09:18;95834.50;;;6.14;100.00
27210;BME280;14721;42.668;23.386;2023-02-28T04:11:51;95837.13;;;6.33;100.00
27210;BME280;14721;42.668;23.386;2023-02-28T04:14:18;95838.28;;;6.27;100.00
27210;BME280;14721;42.668;23.386;2023-02-28T04:16:48;95844.75;;;6.22;100.00
27210;BME280;14721;42.668;23.386;2023-02-28T04:19:14;95836.56;;;6.26;100.00
27210;BME280;14721;42.668;23.386;2023-02-28T04:21:42;95822.06;;;6.33;100.00
27210;BME280;14721;42.668;23.386;2023-02-28T04:24:11;95840.31;;;6.22;100.00
27210;BME280;14721;42.668;23.386;2023-02-28T04:26:40;95835.88;;;6.23;100.00
27210;BME280;14721;42.668;23.386;2023-02-28T04:29:08;95835.59;;;6.10;100.00
27210;BME280;14721;42.668;23.386;2023-02-28T04:31:34;95842.22;;;6.02;100.00
27210;BME280;14721;42.668;23.386;2023-02-28T04:34:00;95836.72;;;5.88;100.00
27210;BME280;14721;42.668;23.386;2023-02-28T04:36:26;95843.56;;;6.10;100.00
27210;BME280;14721;42.668;23.386;2023-02-28T04:38:52;95835.03;;;6.04;100.00
27210;BME280;14721;42.668;23.386;2023-02-28T04:41:17;95851.66;;;6.07;100.00
27210;BME280;14721;42.668;23.386;2023-02-28T04:43:43;95855.25;;;6.06;100.00
27210;BME280;14721;42.668;23.386;2023-02-28T04:46:09;95844.00;;;6.01;100.00
27210;BME280;14721;42.668;23.386;2023-02-28T04:48:37;95865.16;;;6.03;100.00
27210;BME280;14721;42.668;23.386;2023-02-28T04:51:06;95854.94;;;5.75;100.00
27210;BME280;14721;42.668;23.386;2023-02-28T04:53:32;95865.47;;;5.76;100.00
27210;BME280;14721;42.668;23.386;2023-02-28T04:55:58;95870.72;;;5.78;100.00
27210;BME280;14721;42.668;23.386;2023-02-28T04:58:23;95858.22;;;5.82;100.00
27210;BME280;14721;42.668;23.386;2023-02-28T05:00:52;95867.06;;;5.80;100.00
27210;BME280;14721;42.668;23.386;2023-02-28T05:03:19;95866.50;;;5.74;100.00
27210;BME280;14721;42.668;23.386;2023-02-28T05:05:46;95859.78;;;5.86;100.00
27210;BME280;14721;42.668;23.386;2023-02-28T05:08:12;95865.66;;;5.92;100.00
27210;BME280;14721;42.668;23.386;2023-02-28T05:10:38;95857.34;;;6.00;100.00
27210;BME280;14721;42.668;23.386;2023-02-28T05:13:04;95857.41;;;5.98;100.00
27210;BME280;14721;42.668;23.386;2023-02-28T05:15:29;95867.00;;;6.01;100.00
27210;BME280;14721;42.668;23.386;2023-02-28T05:17:55;95868.59;;;6.05;100.00
27210;BME280;14721;42.668;23.386;2023-02-28T05:20:21;95873.59;;;6.11;100.00
27210;BME280;14721;42.668;23.386;2023-02-28T05:22:47;95882.91;;;6.19;100.00
27210;BME280;14721;42.668;23.386;2023-02-28T05:25:17;95872.09;;;6.05;100.00
27210;BME280;14721;42.668;23.386;2023-02-28T05:27:43;95878.56;;;6.00;100.00
27210;BME280;14721;42.668;23.386;2023-02-28T05:30:10;95880.19;;;6.02;100.00
27210;BME280;14721;42.668;23.386;2023-02-28T05:32:39;95886.50;;;6.00;100.00
27210;BME280;14721;42.668;23.386;2023-02-28T05:35:11;95883.78;;;6.01;100.00
27210;BME280;14721;42.668;23.386;2023-02-28T05:37:38;95893.44;;;6.02;100.00
27210;BME280;14721;42.668;23.386;2023-02-28T05:40:05;95891.75;;;6.01;100.00
27210;BME280;14721;42.668;23.386;2023-02-28T05:42:37;95884.94;;;5.96;100.00
27210;BME280;14721;42.668;23.386;2023-02-28T05:45:04;95895.06;;;6.06;100.00
27210;BME280;14721;42.668;23.386;2023-02-28T05:47:30;95901.84;;;6.12;100.00
27210;BME280;14721;42.668;23.386;2023-02-28T05:49:56;95900.13;;;6.11;100.00
27210;BME280;14721;42.668;23.386;2023-02-28T05:52:21;95902.56;;;6.15;100.00
27210;BME280;14721;42.668;23.386;2023-02-28T05:54:47;95907.09;;;6.13;100.00
27210;BME280;14721;42.668;23.386;2023-02-28T05:57:13;95907.31;;;6.09;100.00
27210;BME280;14721;42.668;23.386;2023-02-28T05:59:38;95915.31;;;6.07;100.00
27210;BME280;14721;42.668;23.386;2023-02-28T06:02:15;95917.75;;;6.12;100.00
27210;BME280;14721;42.668;23.386;2023-02-28T06:04:41;95903.03;;;6.23;100.00
27210;BME280;14721;42.668;23.386;2023-02-28T06:07:07;95900.97;;;6.30;100.00
27210;BME280;14721;42.668;23.386;2023-02-28T06:09:33;95910.25;;;6.38;100.00
27210;BME280;14721;42.668;23.386;2023-02-28T06:12:01;95906.31;;;6.47;100.00
27210;BME280;14721;42.668;23.386;2023-02-28T06:14:29;95902.56;;;6.51;100.00
27210;BME280;14721;42.668;23.386;2023-02-28T06:16:56;95904.50;;;6.47;100.00
27210;BME280;14721;42.668;23.386;2023-02-28T06:19:22;95905.44;;;6.46;100.00
27210;BME280;14721;42.668;23.386;2023-02-28T06:21:51;95900.06;;;6.48;100.00
27210;BME280;14721;42.668;23.386;2023-02-28T06:24:18;95910.94;;;6.60;100.00
27210;BME280;14721;42.668;23.386;2023-02-28T06:26:47;95903.59;;;6.48;100.00
27210;BME280;14721;42.668;23.386;2023-02-28T06:29:13;95903.06;;;6.59;100.00
27210;BME280;14721;42.668;23.386;2023-02-28T06:31:43;95908.81;;;6.67;100.00
27210;BME280;14721;42.668;23.386;2023-02-28T06:34:09;95912.69;;;6.43;100.00
27210;BME280;14721;42.668;23.386;2023-02-28T06:36:38;95921.06;;;6.52;100.00
27210;BME280;14721;42.668;23.386;2023-02-28T06:39:03;95914.50;;;6.59;100.00
27210;BME280;14721;42.668;23.386;2023-02-28T06:41:29;95915.81;;;6.69;100.00
27210;BME280;14721;42.668;23.386;2023-02-28T06:43:55;95922.66;;;6.73;100.00
27210;BME280;14721;42.668;23.386;2023-02-28T06:46:21;95914.09;;;6.85;100.00
27210;BME280;14721;42.668;23.386;2023-02-28T06:48:47;95928.00;;;6.90;100.00
27210;BME280;14721;42.668;23.386;2023-02-28T06:51:20;95919.09;;;6.91;100.00
27210;BME280;14721;42.668;23.386;2023-02-28T06:53:47;95933.25;;;6.92;100.00
27210;BME280;14721;42.668;23.386;2023-02-28T06:56:15;95929.53;;;6.77;100.00
27210;BME280;14721;42.668;23.386;2023-02-28T06:58:41;95925.03;;;6.79;100.00
27210;BME280;14721;42.668;23.386;2023-02-28T07:01:07;95934.84;;;6.77;100.00
27210;BME280;14721;42.668;23.386;2023-02-28T07:03:35;95930.72;;;6.72;100.00
27210;BME280;14721;42.668;23.386;2023-02-28T07:06:01;95935.22;;;6.70;100.00
27210;BME280;14721;42.668;23.386;2023-02-28T07:08:27;95930.94;;;6.67;100.00
27210;BME280;14721;42.668;23.386;2023-02-28T07:10:54;95929.69;;;6.74;100.00
27210;BME280;14721;42.668;23.386;2023-02-28T07:13:22;95927.97;;;6.73;100.00
27210;BME280;14721;42.668;23.386;2023-02-28T07:15:54;95934.47;;;6.85;100.00
27210;BME280;14721;42.668;23.386;2023-02-28T07:18:20;95924.47;;;6.90;100.00
27210;BME280;14721;42.668;23.386;2023-02-28T07:20:52;95926.03;;;6.94;100.00
27210;BME280;14721;42.668;23.386;2023-02-28T07:23:18;95919.41;;;7.02;100.00
27210;BME280;14721;42.668;23.386;2023-02-28T07:25:43;95931.44;;;7.09;100.00
27210;BME280;14721;42.668;23.386;2023-02-28T07:28:11;95931.75;;;7.03;100.00
27210;BME280;14721;42.668;23.386;2023-02-28T07:30:37;95924.25;;;7.11;100.00
27210;BME280;14721;42.668;23.386;2023-02-28T07:33:02;95928.00;;;7.24;100.00
27210;BME280;14721;42.668;23.386;2023-02-28T07:35:29;95925.72;;;7.34;100.00
27210;BME280;14721;42.668;23.386;2023-02-28T07:37:54;95931.13;;;7.32;100.00
27210;BME280;14721;42.668;23.386;2023-02-28T07:40:20;95920.00;;;7.41;100.00
27210;BME280;14721;42.668;23.386;2023-02-28T07:42:46;95928.56;;;7.63;100.00
27210;BME280;14721;42.668;23.386;2023-02-28T07:45:12;95921.38;;;7.65;100.00
27210;BME280;14721;42.668;23.386;2023-02-28T07:47:38;95922.44;;;7.79;100.00
27210;BME280;14721;42.668;23.386;2023-02-28T07:50:05;95918.66;;;7.83;100.00
27210;BME280;14721;42.668;23.386;2023-02-28T07:52:31;95915.66;;;7.89;100.00
27210;BME280;14721;42.668;23.386;2023-02-28T07:54:57;95915.19;;;8.13;100.00
27210;BME280;14721;42.668;23.386;2023-02-28T07:57:22;95905.13;;;8.18;100.00
27210;BME280;14721;42.668;23.386;2023-02-28T07:59:48;95886.81;;;8.12;100.00
27210;BME280;14721;42.668;23.386;2023-02-28T08:02:14;95908.25;;;8.42;100.00
27210;BME280;14721;42.668;23.386;2023-02-28T08:04:40;95908.25;;;8.42;100.00
27210;BME280;14721;42.668;23.386;2023-02-28T08:07:05;95903.06;;;8.54;100.00
27210;BME280;14721;42.668;23.386;2023-02-28T08:09:31;95913.88;;;8.82;100.00
27210;BME280;14721;42.668;23.386;2023-02-28T08:11:57;95901.66;;;8.78;100.00
27210;BME280;14721;42.668;23.386;2023-02-28T08:14:23;95918.69;;;9.05;100.00
27210;BME280;14721;42.668;23.386;2023-02-28T08:16:48;95905.66;;;9.30;100.00
27210;BME280;14721;42.668;23.386;2023-02-28T08:19:13;95910.72;;;9.49;100.00
27210;BME280;14721;42.668;23.386;2023-02-28T08:21:39;95900.47;;;9.71;100.00
27210;BME280;14721;42.668;23.386;2023-02-28T08:24:05;95900.16;;;10.04;100.00
27210;BME280;14721;42.668;23.386;2023-02-28T08:26:31;95896.44;;;10.06;100.00
27210;BME280;14721;42.668;23.386;2023-02-28T08:28:56;95911.03;;;10.29;100.00
27210;BME280;14721;42.668;23.386;2023-02-28T08:31:22;95903.88;;;10.29;100.00
27210;BME280;14721;42.668;23.386;2023-02-28T08:33:48;95906.00;;;10.51;100.00
27210;BME280;14721;42.668;23.386;2023-02-28T08:36:16;95918.47;;;10.64;99.24
27210;BME280;14721;42.668;23.386;2023-02-28T08:38:41;95915.16;;;10.87;98.88
27210;BME280;14721;42.668;23.386;2023-02-28T08:41:10;95915.59;;;11.20;97.68
27210;BME280;14721;42.668;23.386;2023-02-28T08:43:37;95901.63;;;11.55;94.31
27210;BME280;14721;42.668;23.386;2023-02-28T08:46:04;95911.66;;;11.26;93.75
27210;BME280;14721;42.668;23.386;2023-02-28T08:48:32;95922.38;;;10.99;96.00
27210;BME280;14721;42.668;23.386;2023-02-28T08:51:00;95900.16;;;11.11;95.30
27210;BME280;14721;42.668;23.386;2023-02-28T08:53:25;95906.28;;;11.13;95.73
27210;BME280;14721;42.668;23.386;2023-02-28T08:56:19;95917.28;;;11.09;94.87
27210;BME280;14721;42.668;23.386;2023-02-28T08:58:46;95911.84;;;11.10;95.59
27210;BME280;14721;42.668;23.386;2023-02-28T09:03:38;95918.00;;;10.98;95.72
27210;BME280;14721;42.668;23.386;2023-02-28T09:06:06;95925.75;;;10.89;96.16
27210;BME280;14721;42.668;23.386;2023-02-28T09:08:32;95929.25;;;10.77;95.70
27210;BME280;14721;42.668;23.386;2023-02-28T09:10:58;95923.31;;;10.72;96.53
27210;BME280;14721;42.668;23.386;2023-02-28T09:13:25;95916.88;;;10.88;96.28
27210;BME280;14721;42.668;23.386;2023-02-28T09:15:51;95922.13;;;10.63;96.20
27210;BME280;14721;42.668;23.386;2023-02-28T09:18:17;95907.47;;;10.56;97.54
27210;BME280;14721;42.668;23.386;2023-02-28T09:20:43;95912.31;;;10.64;97.09
27210;BME280;14721;42.668;23.386;2023-02-28T09:23:10;95915.19;;;10.47;96.67
27210;BME280;14721;42.668;23.386;2023-02-28T09:25:36;95909.22;;;10.29;98.56
27210;BME280;14721;42.668;23.386;2023-02-28T09:28:01;95920.25;;;10.37;98.28
27210;BME280;14721;42.668;23.386;2023-02-28T09:30:27;95915.50;;;10.28;98.40
27210;BME280;14721;42.668;23.386;2023-02-28T09:32:53;95911.50;;;10.35;97.64
27210;BME280;14721;42.668;23.386;2023-02-28T09:35:20;95911.06;;;10.55;97.46
27210;BME280;14721;42.668;23.386;2023-02-28T09:37:51;95918.44;;;10.52;97.38
27210;BME280;14721;42.668;23.386;2023-02-28T09:40:24;95926.88;;;10.72;97.19
27210;BME280;14721;42.668;23.386;2023-02-28T09:42:54;95914.66;;;10.95;95.25
27210;BME280;14721;42.668;23.386;2023-02-28T09:45:36;95910.59;;;10.89;93.94
27210;BME280;14721;42.668;23.386;2023-02-28T09:48:14;95905.81;;;11.07;94.49
27210;BME280;14721;42.668;23.386;2023-02-28T09:50:46;95898.16;;;11.27;94.14
27210;BME280;14721;42.668;23.386;2023-02-28T09:53:33;95896.34;;;11.28;91.85
27210;BME280;14721;42.668;23.386;2023-02-28T09:58:54;95914.16;;;11.02;92.46
27210;BME280;14721;42.668;23.386;2023-02-28T10:04:04;95909.78;;;11.14;92.30
27210;BME280;14721;42.668;23.386;2023-02-28T10:06:41;95897.03;;;11.31;92.36
27210;BME280;14721;42.668;23.386;2023-02-28T10:09:24;95902.47;;;11.42;90.11
27210;BME280;14721;42.668;23.386;2023-02-28T10:11:52;95894.41;;;11.17;90.06
27210;BME280;14721;42.668;23.386;2023-02-28T10:14:29;95898.56;;;11.09;91.24
27210;BME280;14721;42.668;23.386;2023-02-28T10:16:58;95886.03;;;11.09;91.64
27210;BME280;14721;42.668;23.386;2023-02-28T10:22:01;95885.47;;;11.43;90.42
27210;BME280;14721;42.668;23.386;2023-02-28T10:24:38;95874.47;;;11.48;89.98
27210;BME280;14721;42.668;23.386;2023-02-28T10:27:17;95870.31;;;11.69;88.92
27210;BME280;14721;42.668;23.386;2023-02-28T10:29:45;95871.38;;;11.92;86.70
27210;BME280;14721;42.668;23.386;2023-02-28T10:32:14;95871.50;;;11.78;85.21
27210;BME280;14721;42.668;23.386;2023-02-28T10:34:40;95867.50;;;11.58;85.87
27210;BME280;14721;42.668;23.386;2023-02-28T10:37:06;95862.34;;;11.55;86.21
27210;BME280;14721;42.668;23.386;2023-02-28T10:39:36;95861.38;;;11.56;86.35
27210;BME280;14721;42.668;23.386;2023-02-28T10:42:03;95857.56;;;11.60;86.21
27210;BME280;14721;42.668;23.386;2023-02-28T10:44:29;95861.00;;;11.62;87.43
27210;BME280;14721;42.668;23.386;2023-02-28T10:46:55;95855.72;;;11.61;85.90
27210;BME280;14721;42.668;23.386;2023-02-28T10:49:28;95862.09;;;11.72;87.27
27210;BME280;14721;42.668;23.386;2023-02-28T10:51:59;95844.28;;;11.71;85.49
27210;BME280;14721;42.668;23.386;2023-02-28T10:54:34;95846.84;;;11.73;86.05
27210;BME280;14721;42.668;23.386;2023-02-28T10:57:22;95836.34;;;11.70;85.45
27210;BME280;14721;42.668;23.386;2023-02-28T11:00:07;95833.06;;;11.66;85.70
27210;BME280;14721;42.668;23.386;2023-02-28T11:02:38;95836.34;;;11.70;85.68
27210;BME280;14721;42.668;23.386;2023-02-28T11:05:28;95842.56;;;11.70;85.71
27210;BME280;14721;42.668;23.386;2023-02-28T11:08:14;95828.09;;;11.60;85.34
27210;BME280;14721;42.668;23.386;2023-02-28T11:10:46;95829.84;;;11.74;85.58
27210;BME280;14721;42.668;23.386;2023-02-28T11:13:20;95822.44;;;11.77;85.33
27210;BME280;14721;42.668;23.386;2023-02-28T11:15:56;95822.66;;;11.62;85.64
27210;BME280;14721;42.668;23.386;2023-02-28T11:18:54;95828.88;;;11.62;85.53
27210;BME280;14721;42.668;23.386;2023-02-28T11:21:27;95814.22;;;11.68;86.91
27210;BME280;14721;42.668;23.386;2023-02-28T11:24:02;95813.63;;;11.88;85.64
27210;BME280;14721;42.668;23.386;2023-02-28T11:26:46;95827.34;;;12.08;84.37
27210;BME280;14721;42.668;23.386;2023-02-28T11:29:32;95817.19;;;11.88;82.65
27210;BME280;14721;42.668;23.386;2023-02-28T11:34:28;95803.69;;;11.77;85.36
27210;BME280;14721;42.668;23.386;2023-02-28T11:36:58;95816.75;;;11.57;86.09
27210;BME280;14721;42.668;23.386;2023-02-28T11:39:25;95809.38;;;11.73;86.07
27210;BME280;14721;42.668;23.386;2023-02-28T11:55:48;95804.56;;;11.78;85.78
27210;BME280;14721;42.668;23.386;2023-02-28T11:58:33;95792.81;;;11.68;85.47
27210;BME280;14721;42.668;23.386;2023-02-28T12:01:23;95804.56;;;11.65;85.04
27210;BME280;14721;42.668;23.386;2023-02-28T12:12:25;95804.38;;;12.04;83.52
27210;BME280;14721;42.668;23.386;2023-02-28T12:20:57;95804.56;;;11.78;84.92
27210;BME280;14721;42.668;23.386;2023-02-28T12:26:39;95794.59;;;11.80;84.70
27210;BME280;14721;42.668;23.386;2023-02-28T12:29:17;95790.94;;;11.81;83.72
27210;BME280;14721;42.668;23.386;2023-02-28T12:32:21;95798.78;;;11.84;83.69
27210;BME280;14721;42.668;23.386;2023-02-28T12:35:00;95794.06;;;11.87;83.30
27210;BME280;14721;42.668;23.386;2023-02-28T12:37:40;95795.00;;;11.99;82.85
27210;BME280;14721;42.668;23.386;2023-02-28T12:40:14;95800.00;;;12.03;82.04
27210;BME280;14721;42.668;23.386;2023-02-28T12:42:45;95791.88;;;11.92;81.69
27210;BME280;14721;42.668;23.386;2023-02-28T12:47:44;95786.41;;;12.06;80.61
27210;BME280;14721;42.668;23.386;2023-02-28T12:50:11;95794.63;;;12.16;81.23
27210;BME280;14721;42.668;23.386;2023-02-28T12:52:41;95790.31;;;12.13;81.89
27210;BME280;14721;42.668;23.386;2023-02-28T12:55:21;95781.59;;;12.35;80.82
27210;BME280;14721;42.668;23.386;2023-02-28T13:00:55;95777.13;;;12.46;79.43
27210;BME280;14721;42.668;23.386;2023-02-28T13:09:03;95775.72;;;12.88;78.60
27210;BME280;14721;42.668;23.386;2023-02-28T13:11:51;95775.41;;;12.69;76.91
27210;BME280;14721;42.668;23.386;2023-02-28T13:19:37;95772.25;;;12.64;79.11
27210;BME280;14721;42.668;23.386;2023-02-28T13:22:04;95763.78;;;12.57;77.99
27210;BME280;14721;42.668;23.386;2023-02-28T13:25:13;95776.63;;;12.65;77.90
27210;BME280;14721;42.668;23.386;2023-02-28T13:29:52;95777.72;;;12.62;78.25
27210;BME280;14721;42.668;23.386;2023-02-28T13:32:25;95762.31;;;12.53;77.20
27210;BME280;14721;42.668;23.386;2023-02-28T13:39:57;95761.44;;;12.06;79.25
27210;BME280;14721;42.668;23.386;2023-02-28T13:42:34;95776.00;;;12.14;79.12
27210;BME280;14721;42.668;23.386;2023-02-28T14:07:08;95765.94;;;11.69;80.94
27210;BME280;14721;42.668;23.386;2023-02-28T14:09:44;95763.59;;;11.65;80.73
27210;BME280;14721;42.668;23.386;2023-02-28T14:18:00;95766.53;;;11.73;81.58
27210;BME280;14721;42.668;23.386;2023-02-28T14:20:29;95763.59;;;11.65;82.04
27210;BME280;14721;42.668;23.386;2023-02-28T14:36:33;95774.69;;;11.33;84.31
27210;BME280;14721;42.668;23.386;2023-02-28T14:39:20;95781.84;;;11.20;84.34
27210;BME280;14721;42.668;23.386;2023-02-28T14:41:47;95774.97;;;10.91;85.90
27210;BME280;14721;42.668;23.386;2023-02-28T14:44:21;95766.13;;;11.16;86.57
27210;BME280;14721;42.668;23.386;2023-02-28T14:46:56;95769.03;;;11.25;85.63
27210;BME280;14721;42.668;23.386;2023-02-28T14:49:30;95777.78;;;11.27;85.86
27210;BME280;14721;42.668;23.386;2023-02-28T14:54:57;95776.28;;;10.98;86.41
27210;BME280;14721;42.668;23.386;2023-02-28T14:57:25;95781.28;;;10.90;86.84
27210;BME280;14721;42.668;23.386;2023-02-28T15:00:24;95783.09;;;10.90;86.81
27210;BME280;14721;42.668;23.386;2023-02-28T15:02:50;95789.53;;;10.87;87.15
27210;BME280;14721;42.668;23.386;2023-02-28T15:07:48;95772.66;;;10.99;86.75
27210;BME280;14721;42.668;23.386;2023-02-28T15:13:00;95772.63;;;10.87;86.62
27210;BME280;14721;42.668;23.386;2023-02-28T15:15:45;95778.16;;;10.84;86.46
27210;BME280;14721;42.668;23.386;2023-02-28T15:18:35;95769.38;;;10.69;87.31
27210;BME280;14721;42.668;23.386;2023-02-28T15:21:14;95779.88;;;10.72;86.93
27210;BME280;14721;42.668;23.386;2023-02-28T15:23:42;95777.59;;;10.66;87.55
27210;BME280;14721;42.668;23.386;2023-02-28T15:26:15;95784.66;;;10.55;87.65
27210;BME280;14721;42.668;23.386;2023-02-28T15:28:43;95791.78;;;10.54;88.86
27210;BME280;14721;42.668;23.386;2023-02-28T15:31:51;95792.31;;;10.47;88.51
27210;BME280;14721;42.668;23.386;2023-02-28T15:34:43;95795.56;;;10.25;89.78
27210;BME280;14721;42.668;23.386;2023-02-28T15:42:42;95804.16;;;10.02;91.54